地図

経路データ

SID SEASON NUMBER BASIN SUBBASIN NAME ISO_TIME NATURE LAT LON WMO_WIND WMO_PRES WMO_AGENCY TRACK_TYPE DIST2LAND LANDFALL IFLAG USA_AGENCY USA_ATCF_ID USA_LAT USA_LON USA_RECORD USA_STATUS USA_WIND USA_PRES USA_SSHS USA_R34_NE USA_R34_SE USA_R34_SW USA_R34_NW USA_R50_NE USA_R50_SE USA_R50_SW USA_R50_NW USA_R64_NE USA_R64_SE USA_R64_SW USA_R64_NW USA_POCI USA_ROCI USA_RMW USA_EYE TOKYO_LAT TOKYO_LON TOKYO_GRADE TOKYO_WIND TOKYO_PRES TOKYO_R50_DIR TOKYO_R50_LONG TOKYO_R50_SHORT TOKYO_R30_DIR TOKYO_R30_LONG TOKYO_R30_SHORT TOKYO_LAND CMA_LAT CMA_LON CMA_CAT CMA_WIND CMA_PRES HKO_LAT HKO_LON HKO_CAT HKO_WIND HKO_PRES NEWDELHI_LAT NEWDELHI_LON NEWDELHI_GRADE NEWDELHI_WIND NEWDELHI_PRES NEWDELHI_CI NEWDELHI_DP NEWDELHI_POCI REUNION_LAT REUNION_LON REUNION_TYPE REUNION_WIND REUNION_PRES REUNION_TNUM REUNION_CI REUNION_RMW REUNION_R34_NE REUNION_R34_SE REUNION_R34_SW REUNION_R34_NW REUNION_R50_NE REUNION_R50_SE REUNION_R50_SW REUNION_R50_NW REUNION_R64_NE REUNION_R64_SE REUNION_R64_SW REUNION_R64_NW BOM_LAT BOM_LON BOM_TYPE BOM_WIND BOM_PRES BOM_TNUM BOM_CI BOM_RMW BOM_R34_NE BOM_R34_SE BOM_R34_SW BOM_R34_NW BOM_R50_NE BOM_R50_SE BOM_R50_SW BOM_R50_NW BOM_R64_NE BOM_R64_SE BOM_R64_SW BOM_R64_NW BOM_ROCI BOM_POCI BOM_EYE BOM_POS_METHOD BOM_PRES_METHOD NADI_LAT NADI_LON NADI_CAT NADI_WIND NADI_PRES WELLINGTON_LAT WELLINGTON_LON WELLINGTON_WIND WELLINGTON_PRES DS824_LAT DS824_LON DS824_STAGE DS824_WIND DS824_PRES TD9636_LAT TD9636_LON TD9636_STAGE TD9636_WIND TD9636_PRES TD9635_LAT TD9635_LON TD9635_WIND TD9635_PRES TD9635_ROCI NEUMANN_LAT NEUMANN_LON NEUMANN_CLASS NEUMANN_WIND NEUMANN_PRES MLC_LAT MLC_LON MLC_CLASS MLC_WIND MLC_PRES USA_GUST BOM_GUST BOM_GUST_PER REUNION_GUST REUNION_GUST_PER USA_SEAHGT USA_SEARAD_NE USA_SEARAD_SE USA_SEARAD_SW USA_SEARAD_NW STORM_SPEED STORM_DIR
1983059S13127 1983 12 SI WA KEN 1983-02-27 12:00:00 TS -13.3000 126.700 main 60 60 O___________O_ jtwc_sh SH161983 -13.3000 126.700 25 -1 -13.3000 126.700 TC 25 11 287
1983059S13127 1983 12 SI WA KEN 1983-02-27 15:00:00 TS -13.1378 126.165 main 101 100 P___________P_ SH161983 -13.1378 126.165 25 -1 -13.1378 126.165 TC 25 10 287
1983059S13127 1983 12 SI WA KEN 1983-02-27 18:00:00 TS -13.0000 125.700 main 120 120 O___________O_ jtwc_sh SH161983 -13.0000 125.700 25 -1 -13.0000 125.700 TC 25 8 286
1983059S13127 1983 12 SI WA KEN 1983-02-27 21:00:00 TS -12.9124 125.355 main 144 144 P___________P_ SH161983 -12.9124 125.355 27 -1 -12.9124 125.355 TC 27 6 280
1983059S13127 1983 12 SI WA KEN 1983-02-28 00:00:00 TS -12.9000 125.100 main 163 163 O___________O_ jtwc_sh SH161983 -12.9000 125.100 30 -1 -12.9000 125.100 TC 30 5 260
1983059S13127 1983 12 SI WA KEN 1983-02-28 03:00:00 TS -12.9911 124.873 30 994 bom main 164 159 P_____O_____P_ SH161983 -12.9775 124.870 30 -1 -13.1000 124.900 20 30 994 2.50000 -12.9775 124.870 TC 30 4 239
1983059S13127 1983 12 SI WA KEN 1983-02-28 06:00:00 TS -13.1200 124.720 40 992 bom main 165 156 O_____O_____O_ jtwc_sh SH161983 -13.1000 124.700 30 -1 -13.2000 124.800 30 40 992 3.00000 -13.1000 124.700 TC 30 3 228
1983059S13127 1983 12 SI WA KEN 1983-02-28 09:00:00 TS -13.1945 124.638 45 990 bom main 163 155 P_____O_____P_ SH161983 -13.1925 124.577 32 -1 -13.2000 124.800 30 45 990 3.00000 -13.1925 124.577 TC 32 2 216
1983059S13127 1983 12 SI WA KEN 1983-02-28 12:00:00 TS -13.3000 124.585 50 988 bom main 155 147 O_____O___O_O_ jtwc_sh SH161983 -13.3000 124.500 35 0 -13.3000 124.700 30 50 988 3.50000 -13.3000 124.800 2 49 -13.3000 124.500 TC 35 2 203
1983059S13127 1983 12 SI WA KEN 1983-02-28 15:00:00 TS -13.3868 124.554 50 986 bom main 147 144 P_____O___P_P_ SH161983 -13.4500 124.442 35 0 -13.3000 124.700 30 50 986 3.50000 -13.3079 124.706 2 51 -13.4500 124.442 TC 35 2 205
1983059S13127 1983 12 SI WA KEN 1983-02-28 18:00:00 TS -13.4932 124.497 50 984 bom main 144 144 O_____O___P_O_ jtwc_sh SH161983 -13.6000 124.400 35 0 -13.4000 124.600 30 50 984 3.50000 -13.3325 124.620 2 54 -13.6000 124.400 TC 35 2 207
1983059S13127 1983 12 SI WA KEN 1983-02-28 21:00:00 TS -13.5515 124.462 50 982 bom main 135 135 P_____O___P_P_ SH161983 -13.7075 124.350 37 0 -13.4000 124.600 30 50 982 3.50000 -13.3910 124.549 2 56 -13.7075 124.350 TC 37 2 212
1983059S13127 1983 12 SI WA KEN 1983-03-01 00:00:00 TS -13.6500 124.400 55 980 bom main 141 124 O_____O___O_O_ jtwc_sh SH161983 -13.8000 124.300 40 0 -13.5000 124.500 30 55 980 4.00000 -13.5000 124.500 2 59 -13.8000 124.300 TC 40 3 204
1983059S13127 1983 12 SI WA KEN 1983-03-01 03:00:00 TS -13.8173 124.341 55 978 bom main 132 118 P_____O___P_P_ SH161983 -13.9000 124.243 40 0 -13.8000 124.400 30 55 978 4.00000 -13.6691 124.478 2 60 -13.9000 124.243 TC 40 4 190
1983059S13127 1983 12 SI WA KEN 1983-03-01 06:00:00 TS -13.9944 124.344 55 977 bom main 118 111 O_____O___P_O_ jtwc_sh SH161983 -14.0000 124.200 40 0 -14.1000 124.500 30 55 977 4.00000 -13.8775 124.477 2 62 -14.0000 124.200 TC 40 3 176
1983059S13127 1983 12 SI WA KEN 1983-03-01 09:00:00 TS -14.1205 124.343 60 976 bom main 111 106 P_____O___P_P_ SH161983 -14.0925 124.192 42 0 -14.2000 124.500 30 60 976 4.00000 -14.0972 124.488 2 63 -14.0925 124.192 TC 42 3 176
1983059S13127 1983 12 SI WA KEN 1983-03-01 12:00:00 TS -14.2500 124.350 60 975 bom main 97 97 O_____O___O_O_ jtwc_sh SH161983 -14.2000 124.200 45 0 -14.3000 124.500 30 60 975 4.00000 -14.3000 124.500 4 65 -14.2000 124.200 TC 45 3 178
1983059S13127 1983 12 SI WA KEN 1983-03-01 15:00:00 TS -14.3768 124.345 60 974 bom main 99 95 P_____O___P_P_ SH161983 -14.3425 124.193 45 0 -14.4000 124.500 30 60 974 4.00000 -14.4222 124.496 4 67 -14.3425 124.193 TC 45 3 0
1983059S13127 1983 12 SI WA KEN 1983-03-01 18:00:00 TS -14.5069 124.348 60 973 bom main 95 79 O_____O___P_O_ jtwc_sh SH161983 -14.5000 124.200 45 0 -14.5000 124.500 30 60 973 4.00000 -14.5275 124.493 4 70 -14.5000 124.200 TC 45 3 0
1983059S13127 1983 12 SI WA KEN 1983-03-01 21:00:00 TS -14.6285 124.366 60 972 bom main 79 62 P_____O___P_P_ SH161983 -14.6350 124.235 47 0 -14.6000 124.500 30 60 972 4.00000 -14.6441 124.493 4 73 -14.6350 124.235 TC 47 3 169
1983059S13127 1983 12 SI WA KEN 1983-03-02 00:00:00 TS -14.8000 124.400 60 970 bom main 62 48 O_____O___O_O_ jtwc_sh SH161983 -14.8000 124.300 50 0 -14.8000 124.500 30 60 970 4.00000 1008 -14.8000 124.500 4 76 -14.8000 124.300 TC 50 4 169
1983059S13127 1983 12 SI WA KEN 1983-03-02 03:00:00 TS -15.0278 124.448 65 970 bom main 48 24 P_____V___P_P_ SH161983 -15.0275 124.393 52 0 -15.0000 124.500 40 65 970 4.50000 1008 -15.0562 124.506 4 76 -15.0275 124.393 TC 52 6 169
1983059S13127 1983 12 SI WA KEN 1983-03-02 06:00:00 TS -15.3375 124.505 65 970 bom main 24 0 O_____O___P_O_ jtwc_sh SH161983 -15.3000 124.500 55 0 -15.4000 124.500 40 65 970 4.50000 1008 -15.3500 124.520 4 76 -15.3000 124.500 TC 55 6 170
1983059S13127 1983 12 SI WA KEN 1983-03-02 09:00:00 TS -15.6397 124.562 65 970 bom main 0 0 P_____O___P_P_ SH161983 -15.6075 124.600 55 0 -15.7000 124.500 40 65 970 4.50000 1008 -15.6437 124.549 4 76 -15.6075 124.600 TC 52 6 166
1983059S13127 1983 12 SI WA KEN 1983-03-02 12:00:00 TS -15.9000 124.650 60 970 bom main 0 0 O_____O___O_O_ jtwc_sh SH161983 -15.9000 124.700 55 0 -15.9000 124.600 30 60 970 -15.9000 124.600 4 76 -15.9000 124.700 TC 50 5 162
1983059S13127 1983 12 SI WA KEN 1983-03-02 15:00:00 TS -16.0914 124.714 55 973 bom main 0 0 P_____O___P_P_ SH161983 -16.1150 124.808 55 0 -16.1000 124.600 30 55 973 -16.0354 124.642 4 69 -16.1150 124.808 TC 45 4 158
1983059S13127 1983 12 SI WA KEN 1983-03-02 18:00:00 TS -16.2587 124.803 50 976 bom main 0 0 O_____O___P_O_ jtwc_sh SH161983 -16.3000 124.900 55 0 -16.3000 124.700 30 50 976 -16.1347 124.711 4 62 -16.3000 124.900 TC 40 3 151
1983059S13127 1983 12 SI WA KEN 1983-03-02 21:00:00 TS -16.3816 124.881 50 982 bom main 0 0 P_____O___P_P_ SH161983 -16.4925 124.950 55 0 -16.3000 124.800 30 50 982 -16.2416 124.824 4 55 -16.4925 124.950 TC 37 4 141
1983059S13127 1983 12 SI WA KEN 1983-03-03 00:00:00 TS -16.5500 125.050 45 988 bom main 0 0 O_____O___O_O_ jtwc_sh SH161983 -16.7000 125.000 55 0 -16.4000 125.200 30 45 988 -16.4000 125.000 2 49 -16.7000 125.000 TC 35 984 5 137
1983059S13127 1983 12 SI WA KEN 1983-03-03 03:00:00 TS -16.7605 125.243 35 990 bom main 0 0 P_____O___P_P_ SH161983 -16.9350 125.085 55 0 -16.5000 125.500 30 35 990 -16.6721 125.300 2 47 -16.9350 125.085 TC 32 6 142
1983059S13127 1983 12 SI WA KEN 1983-03-03 06:00:00 TS -17.0496 125.464 35 991 bom main 0 0 O_____O___P_O_ jtwc_sh SH161983 -17.2000 125.200 55 0 -16.8000 125.800 30 35 991 -16.9983 125.656 2 46 -17.2000 125.200 TC 30 7 146
1983059S13127 1983 12 SI WA KEN 1983-03-03 09:00:00 TS -17.3626 125.670 35 991 bom main 0 0 P_____O___P_P_ SH161983 -17.5000 125.335 55 0 -17.1000 126.000 30 35 991 -17.3503 126.009 2 44 -17.5000 125.335 TC 30 8 149
1983059S13127 1983 12 SI WA KEN 1983-03-03 12:00:00 TS -17.7500 125.900 30 992 bom main 0 0 O_____O___O_O_ jtwc_sh SH161983 -17.8000 125.500 55 0 -17.7000 126.300 20 30 992 -17.7000 126.300 2 43 -17.8000 125.500 TC 30 8 146
1983059S13127 1983 12 SI WA KEN 1983-03-03 15:00:00 TS -18.0312 126.135 25 992 bom main 0 0 P_____O___P_P_ SH161983 -18.0650 125.685 52 0 -18.0000 126.700 20 25 992 -17.9947 126.472 2 43 -18.0650 125.685 TC 27 7 147
1983059S13127 1983 12 SI WA KEN 1983-03-03 18:00:00 TS -18.3242 126.292 25 992 bom main 0 0 O_____O___P_O_ jtwc_sh SH161983 -18.3000 125.900 50 0 -18.4000 126.600 20 25 992 -18.2846 126.570 2 43 -18.3000 125.900 TC 25 6 152
1983059S13127 1983 12 SI WA KEN 1983-03-03 21:00:00 TS -18.5966 126.450 25 993 bom main 0 0 P_____O___P_P_ SH161983 -18.5076 126.142 47 0 -18.7000 126.600 20 25 993 -18.5823 126.609 2 43 -18.5076 126.142 TC 25 6 155
1983059S13127 1983 12 SI WA KEN 1983-03-04 00:00:00 TS -18.8600 126.560 25 994 bom main 0 0 O_____O___O_O_ jtwc_sh SH161983 -18.7000 126.400 45 0 -18.9000 126.600 20 25 994 -18.9000 126.600 2 43 -18.7000 126.400 TC 25 7 173
1983059S13127 1983 12 SI WA KEN 1983-03-04 03:00:00 NR -19.3328 126.544 25 994 bom main 0 0 ______O___P___ SH161983 -1 -19.4000 126.500 20 25 994 -19.2655 126.589 2 43 TC 8 186
1983059S13127 1983 12 SI WA KEN 1983-03-04 06:00:00 NR -19.6749 126.466 20 994 bom main 0 0 ______O___P___ -1 -19.7000 126.400 20 20 994 -19.6499 126.533 2 43 7 190
1983059S13127 1983 12 SI WA KEN 1983-03-04 09:00:00 NR -20.0171 126.418 20 994 bom main 0 0 ______O___P___ -1 -20.0000 126.400 20 20 994 -20.0343 126.435 2 43 7 192
1983059S13127 1983 12 SI WA KEN 1983-03-04 12:00:00 NR -20.4000 126.300 20 994 bom main 0 0 ______O___O___ -1 -20.4000 126.300 20 20 994 -20.4000 126.300 2 43 7 198
1983059S13127 1983 12 SI WA KEN 1983-03-04 15:00:00 NR -20.7025 126.184 20 994 bom main 0 0 ______O___P___ -1 -20.7000 126.200 20 20 994 -20.7050 126.168 2 41 7 205
1983059S13127 1983 12 SI WA KEN 1983-03-04 18:00:00 NR -20.9960 125.998 20 995 bom main 0 0 ______O___P___ -1 -21.0000 126.000 20 20 995 -20.9920 125.996 2 40 7 214
1983059S13127 1983 12 SI WA KEN 1983-03-04 21:00:00 NR -21.2415 125.788 15 995 bom main 0 0 ______O___P___ -1 -21.2000 125.800 20 15 995 -21.2830 125.777 2 39 8 218
1983059S13127 1983 12 SI WA KEN 1983-03-05 00:00:00 NR -21.6000 125.500 15 995 bom main 0 0 ______O___O___ -1 -21.6000 125.500 20 15 995 -21.6000 125.500 2 38 9 222
1983059S13127 1983 12 SI WA KEN 1983-03-05 03:00:00 NR -21.9158 125.140 15 995 bom main 0 0 ______O___P___ -1 -21.9000 125.300 20 15 995 -21.9315 124.979 2 38 11 226
1983059S13127 1983 12 SI WA KEN 1983-03-05 06:00:00 NR -22.3978 124.615 15 995 bom main 0 0 ______O___P___ -1 -22.5000 124.800 20 15 995 -22.2956 124.430 2 38 12 226
1983059S13127 1983 12 SI WA KEN 1983-03-05 09:00:00 NR -22.7557 124.208 15 996 bom main 0 0 ______O___P___ -1 -22.8000 124.400 20 15 996 -22.7114 124.016 2 38 10 219
1983059S13127 1983 12 SI WA KEN 1983-03-05 12:00:00 NR -23.2000 123.900 15 997 bom main 0 0 ______O___O___ -1 -23.2000 123.900 20 15 997 -23.2000 123.900 2 38 12 181
1983059S13127 1983 12 SI WA KEN 1983-03-05 15:00:00 NR -23.9641 124.203 15 998 bom main 0 0 ______O___P___ -1 -24.1000 124.100 20 15 998 -23.8282 124.306 2 35 19 144
1983059S13127 1983 12 SI WA KEN 1983-03-05 18:00:00 NR -24.7588 125.162 15 999 bom main 0 0 ______O___P___ -1 -25.0000 125.300 20 15 999 -24.5176 125.025 2 32 21 129
1983059S13127 1983 12 SI WA KEN 1983-03-05 21:00:00 NR -25.2988 126.003 15 1000 bom main 0 0 ______O___P___ -1 -25.4000 126.100 20 15 1000 -25.1976 125.907 2 29 18 125
1983059S13127 1983 12 SI WA KEN 1983-03-06 00:00:00 NR -25.8000 126.800 15 1001 bom main 0 0 ______O___O___ -1 -25.8000 126.800 20 15 1001 -25.8000 126.800 1 27 16 128
1983059S13127 1983 12 SI WA KEN 1983-03-06 03:00:00 NR -26.2895 127.391 15 1002 bom main 0 0 ______O___P___ -1 -26.3000 127.200 20 15 1002 -26.2789 127.581 1 25 13 132
1983059S13127 1983 12 SI WA KEN 1983-03-06 06:00:00 NR -26.6817 127.882 15 1003 bom main 0 0 ______O___P___ -1 -26.7000 127.500 20 15 1003 -26.6635 128.264 1 23 15 118
1983059S13127 1983 12 SI WA KEN 1983-03-06 09:00:00 NR -27.0000 128.900 15 1004 bom main 0 ______O___O___ -1 -27.0000 128.900 20 15 1004 -27.0000 128.900 1 22 19 109

IBTrACS Databaseについて

本データベースは、米国NOAAが公開する1842年以降の世界の熱帯低気圧のベストトラックデータアーカイブInternational Best Track Archive for Climate Stewardship (IBTrACS)を、ウェブで閲覧しやすい形式に変換したものです。

最終更新日:2021-12-01